Time;durP1;ratioP1;P1;durP2;ratioP2;P2;SDS_P1;SDS_P2;PMS_P1;PMS_P2;Temp;Humidity;BMP_temperature;BMP_pressure;BME280_temperature;BME280_humidity;BME280_pressure;Samples;Min_cycle;Max_cycle;Signal;HPM_P1;HPM_P2
2022/12/01 00:03:13;;;;;;;42.50;22.30;;;;;;;0.30;92.90;99687.82;419853;1295;99241;-40
2022/12/01 00:13:22;;;;;;;44.90;24.00;;;;;;;0.33;92.97;99681.27;419835;1295;107488;-39
2022/12/01 00:23:29;;;;;;;49.50;25.90;;;;;;;0.26;92.77;99675.66;419847;1307;99275;-39
2022/12/01 00:33:35;;;;;;;56.10;27.50;;;;;;;0.20;92.65;99674.96;420011;1302;110541;-39
2022/12/01 00:43:43;;;;;;;35.60;21.90;;;;;;;0.20;92.53;99672.66;419677;1307;109406;-39
2022/12/01 00:53:50;;;;;;;32.20;19.00;;;;;;;0.32;92.69;99670.76;419671;1296;99265;-40
2022/12/01 01:03:57;;;;;;;32.40;19.70;;;;;;;0.41;92.54;99663.34;419608;1294;107906;-40
2022/12/01 01:14:05;;;;;;;43.40;21.80;;;;;;;0.48;92.58;99659.06;419739;1295;99231;-39
2022/12/01 01:24:12;;;;;;;44.10;22.50;;;;;;;0.40;92.65;99654.96;419813;1304;113145;-39
2022/12/01 01:34:19;;;;;;;39.60;20.90;;;;;;;0.34;92.51;99654.31;419740;1288;109452;-39
2022/12/01 01:44:51;;;;;;;49.30;25.30;;;;;;;0.25;92.42;99651.16;419747;1301;99260;-39
2022/12/01 01:54:59;;;;;;;42.70;26.50;;;;;;;0.23;92.30;99645.90;419775;1302;108742;-39
2022/12/01 02:05:09;;;;;;;29.70;17.90;;;;;;;0.36;92.30;99638.65;419688;1295;98834;-39
2022/12/01 02:15:18;;;;;;;27.50;15.60;;;;;;;0.48;92.40;99634.21;420690;1281;110849;-39
2022/12/01 02:25:24;;;;;;;38.60;22.20;;;;;;;0.55;92.48;99636.95;419689;1288;107957;-39
2022/12/01 02:35:30;;;;;;;37.40;19.50;;;;;;;0.50;92.31;99644.27;419777;1299;98031;-40
2022/12/01 02:45:36;;;;;;;38.90;21.70;;;;;;;0.46;92.38;99643.83;419914;1302;112151;-39
2022/12/01 02:55:47;;;;;;;22.40;15.50;;;;;;;0.44;92.21;99632.20;419690;1300;109348;-40
2022/12/01 03:06:00;;;;;;;21.40;13.90;;;;;;;0.52;92.11;99629.91;419671;1300;98378;-40
2022/12/01 03:16:07;;;;;;;26.10;17.60;;;;;;;0.66;92.26;99621.15;419800;1301;112483;-39
2022/12/01 03:26:16;;;;;;;37.90;21.80;;;;;;;0.67;92.36;99615.34;419835;1299;107614;-40
2022/12/01 03:36:25;;;;;;;32.30;17.50;;;;;;;0.56;92.14;99616.17;419909;1302;99227;-40
2022/12/01 03:46:36;;;;;;;25.50;14.00;;;;;;;0.53;91.94;99609.52;419818;1302;107524;-40
2022/12/01 03:56:41;;;;;;;20.40;12.60;;;;;;;0.60;91.94;99612.87;419828;1294;98843;-38
2022/12/01 04:16:56;;;;;;;34.30;18.00;;;;;;;0.56;92.07;99600.05;419814;1304;107216;-39
2022/12/01 04:27:04;;;;;;;19.70;14.60;;;;;;;0.56;91.75;99600.73;419709;1304;99162;-39
2022/12/01 04:47:18;;;;;;;35.90;21.70;;;;;;;0.58;91.84;99596.41;419677;1291;99178;-38
2022/12/01 04:57:25;;;;;;;45.20;24.30;;;;;;;0.48;91.90;99598.04;421533;1296;111470;-38
2022/12/01 05:07:33;;;;;;;30.10;18.00;;;;;;;0.45;91.73;99595.48;420537;1294;109714;-39
2022/12/01 05:17:40;;;;;;;29.00;17.00;;;;;;;0.49;91.70;99592.56;419630;1295;98093;-39
2022/12/01 05:27:47;;;;;;;36.00;20.20;;;;;;;0.54;91.81;99602.63;419663;1294;112245;-39
2022/12/01 05:37:55;;;;;;;45.00;24.20;;;;;;;0.54;91.84;99603.85;419803;1296;107349;-39
2022/12/01 05:48:03;;;;;;;35.50;20.70;;;;;;;0.49;91.92;99605.02;419651;1294;99236;-39
2022/12/01 05:58:11;;;;;;;37.20;19.90;;;;;;;0.52;91.76;99603.38;419548;1295;107774;-43
2022/12/01 06:08:18;;;;;;;37.80;20.80;;;;;;;0.58;91.90;99607.13;419667;1303;99262;-39
2022/12/01 06:18:25;;;;;;;55.20;27.60;;;;;;;0.52;92.12;99618.79;419570;1300;111808;-38
2022/12/01 06:28:30;;;;;;;35.40;20.40;;;;;;;0.50;91.89;99623.29;419616;1287;107540;-40
2022/12/01 06:38:38;;;;;;;34.10;21.30;;;;;;;0.56;92.07;99631.23;419747;1295;99240;-40
2022/12/01 06:48:47;;;;;;;37.40;22.00;;;;;;;0.63;92.15;99640.89;419665;1302;109443;-40
2022/12/01 06:58:56;;;;;;;61.30;33.70;;;;;;;0.64;92.31;99643.08;419702;1294;99246;-39
2022/12/01 07:09:04;;;;;;;28.70;19.00;;;;;;;0.62;92.21;99647.00;419829;1301;111635;-39
2022/12/01 07:19:09;;;;;;;29.30;17.90;;;;;;;0.68;92.10;99653.23;419679;1302;107513;-39
2022/12/01 07:29:17;;;;;;;32.20;20.20;;;;;;;0.76;92.15;99657.55;419626;1299;98033;-38
2022/12/01 07:39:24;;;;;;;47.20;23.30;;;;;;;0.75;92.38;99662.84;419863;1295;107189;-39
2022/12/01 07:49:30;;;;;;;25.20;15.60;;;;;;;0.72;92.35;99664.16;419743;1301;98661;-39
2022/12/01 07:59:38;;;;;;;25.80;15.20;;;;;;;0.79;92.38;99664.41;419694;1303;111241;-40
2022/12/01 08:09:45;;;;;;;39.60;20.90;;;;;;;0.86;92.38;99659.91;419782;1294;107570;-39
2022/12/01 08:19:51;;;;;;;24.70;14.00;;;;;;;0.82;92.61;99658.87;419721;1304;99221;-39
2022/12/01 08:29:59;;;;;;;25.20;15.90;;;;;;;0.96;92.34;99661.53;419634;1295;108491;-40
2022/12/01 08:40:08;;;;;;;25.60;14.40;;;;;;;1.07;92.37;99666.45;419585;1294;99403;-40
2022/12/01 09:00:23;;;;;;;30.50;14.90;;;;;;;1.14;92.38;99671.86;419461;1294;107532;-40
2022/12/01 09:10:30;;;;;;;23.20;12.80;;;;;;;1.15;92.26;99671.55;419430;1287;98418;-40
2022/12/01 09:20:37;;;;;;;28.90;15.30;;;;;;;1.11;92.17;99668.64;419557;1295;107824;-40
2022/12/01 09:30:44;;;;;;;23.40;13.60;;;;;;;1.14;92.04;99663.20;419384;1303;98847;-40
2022/12/01 09:40:52;;;;;;;18.90;13.10;;;;;;;1.21;91.76;99656.11;419577;1294;112594;-40
2022/12/01 09:50:59;;;;;;;23.50;14.80;;;;;;;1.31;91.91;99645.46;419621;1287;108598;-40
2022/12/01 10:01:10;;;;;;;26.90;15.20;;;;;;;1.35;91.63;99635.64;419465;1304;99239;-40
2022/12/01 10:11:16;;;;;;;24.00;15.30;;;;;;;1.41;91.38;99634.54;419539;1302;106968;-40
2022/12/01 10:21:25;;;;;;;35.40;18.50;;;;;;;1.41;91.50;99633.02;419512;1286;99246;-40
2022/12/01 10:31:31;;;;;;;17.20;11.50;;;;;;;1.31;91.41;99630.84;419558;1295;111368;-39
2022/12/01 10:41:40;;;;;;;15.20;9.40;;;;;;;1.37;90.89;99627.63;419326;1294;107109;-40
2022/12/01 10:51:49;;;;;;;16.30;8.90;;;;;;;1.39;90.97;99618.19;419519;1295;99235;-38
2022/12/01 11:01:58;;;;;;;18.90;10.80;;;;;;;1.26;90.38;99615.52;419433;1294;108777;-40
2022/12/01 11:12:04;;;;;;;24.90;11.50;;;;;;;1.24;90.14;99612.25;419341;1302;341086;-41
2022/12/01 11:22:18;;;;;;;25.60;13.80;;;;;;;1.34;90.04;99606.90;419459;1305;111921;-39
2022/12/01 11:32:29;;;;;;;22.30;13.00;;;;;;;1.33;90.17;99598.98;419522;1300;109196;-40
2022/12/01 11:42:36;;;;;;;14.00;8.80;;;;;;;1.26;89.80;99596.54;419612;1302;99224;-40
2022/12/01 11:52:47;;;;;;;12.90;8.00;;;;;;;1.35;89.29;99594.52;419674;1302;109507;-40
2022/12/01 12:02:59;;;;;;;16.90;9.80;;;;;;;1.37;89.13;99593.38;419765;1302;99163;-39
2022/12/01 12:13:12;;;;;;;9.50;6.80;;;;;;;1.34;88.64;99590.40;419823;1304;111770;-40
2022/12/01 12:23:29;;;;;;;10.60;6.80;;;;;;;1.38;88.41;99587.73;419728;1294;108278;-39
2022/12/01 12:33:43;;;;;;;23.50;11.90;;;;;;;1.37;88.15;99588.73;419721;1303;98508;-41
2022/12/01 12:43:48;;;;;;;20.60;11.30;;;;;;;1.29;87.99;99582.95;419652;1302;107462;-40
2022/12/01 12:53:52;;;;;;;11.10;7.00;;;;;;;1.27;87.63;99585.02;419742;1304;98127;-39
2022/12/01 13:04:01;;;;;;;20.90;12.80;;;;;;;1.30;87.63;99586.67;419565;1286;111881;-40
2022/12/01 13:14:15;;;;;;;20.40;13.20;;;;;;;1.26;87.88;99590.18;419435;1294;106859;-40
2022/12/01 13:24:24;;;;;;;9.60;6.40;;;;;;;1.21;87.25;99589.91;418781;1297;98038;-39
2022/12/01 13:34:32;;;;;;;18.60;9.70;;;;;;;1.21;87.29;99593.59;418878;1304;107969;-39
2022/12/01 13:44:38;;;;;;;15.60;9.70;;;;;;;1.13;87.06;99592.76;418787;1304;98840;-39
2022/12/01 13:54:59;;;;;;;9.70;6.10;;;;;;;1.10;86.50;99597.01;418818;1298;111294;-40
2022/12/01 14:05:41;;;;;;;18.20;11.60;;;;;;;1.12;86.77;99594.52;418887;1289;107056;-40
2022/12/01 14:15:53;;;;;;;18.60;10.30;;;;;;;1.04;86.59;99599.18;419015;1304;99234;-39
2022/12/01 14:25:59;;;;;;;12.90;8.70;;;;;;;1.03;86.41;99603.23;420244;1298;109623;-40
2022/12/01 14:36:07;;;;;;;19.80;12.20;;;;;;;1.02;86.34;99602.82;420402;1295;99228;-40
2022/12/01 14:56:30;;;;;;;10.70;7.10;;;;;;;0.88;85.85;99598.07;419602;1295;107668;-40
2022/12/01 15:06:38;;;;;;;13.20;8.80;;;;;;;0.87;85.89;99593.99;419697;1293;100038;-40
2022/12/01 15:16:45;;;;;;;16.50;8.30;;;;;;;0.77;85.87;99595.17;419692;1302;107784;-40
2022/12/01 15:26:55;;;;;;;16.10;9.30;;;;;;;0.75;85.55;99598.80;419682;1293;98388;-39
2022/12/01 15:37:11;;;;;;;17.70;10.50;;;;;;;0.74;85.56;99599.27;419792;1299;111302;-40
2022/12/01 15:47:45;;;;;;;14.40;8.00;;;;;;;0.68;85.67;99596.31;419849;1286;107157;-39
2022/12/01 15:57:53;;;;;;;9.90;7.10;;;;;;;0.72;85.44;99593.01;419772;1301;99173;-40
2022/12/01 16:08:12;;;;;;;17.40;11.20;;;;;;;0.71;85.64;99588.97;419840;1303;108706;-38
2022/12/01 16:18:24;;;;;;;22.40;12.60;;;;;;;0.63;85.70;99595.27;419943;1302;99221;-40
2022/12/01 16:38:40;;;;;;;19.60;12.20;;;;;;;0.69;85.69;99597.44;419683;1295;107857;-39
2022/12/01 16:48:47;;;;;;;24.40;14.90;;;;;;;0.62;85.76;99592.73;419826;1302;98956;-39
2022/12/01 16:58:54;;;;;;;25.20;15.30;;;;;;;0.57;85.99;99588.83;419716;1303;108909;-39
2022/12/01 17:09:01;;;;;;;13.40;10.00;;;;;;;0.61;85.85;99585.48;419774;1301;99054;-39
2022/12/01 17:19:08;;;;;;;38.60;22.10;;;;;;;0.56;86.01;99585.30;419860;1302;111748;-40
2022/12/01 17:29:16;;;;;;;17.00;11.80;;;;;;;0.47;85.77;99592.33;419723;1302;107183;-39
2022/12/01 17:39:23;;;;;;;28.30;13.50;;;;;;;0.46;85.83;99588.44;419824;1302;98064;-40
2022/12/01 17:49:29;;;;;;;26.70;15.60;;;;;;;0.40;85.87;99582.63;419703;1298;109377;-38
2022/12/01 17:59:38;;;;;;;12.60;8.20;;;;;;;0.32;85.73;99577.67;419760;1302;101685;-38
2022/12/01 18:09:47;;;;;;;31.70;15.90;;;;;;;0.27;85.86;99581.73;419727;1301;112322;-39
2022/12/01 18:19:54;;;;;;;42.40;22.90;;;;;;;0.30;86.15;99576.62;419660;1295;107731;-40
2022/12/01 18:30:02;;;;;;;54.00;26.50;;;;;;;0.24;86.19;99579.26;419703;1299;117431;-39
2022/12/01 18:40:11;;;;;;;19.40;11.30;;;;;;;0.19;85.99;99583.66;419644;1299;107490;-39
2022/12/01 18:50:16;;;;;;;19.20;12.30;;;;;;;0.23;86.19;99586.61;419825;1298;99258;-39
2022/12/01 19:00:23;;;;;;;32.10;15.70;;;;;;;0.26;86.14;99583.42;419831;1302;110814;-40
2022/12/01 19:10:31;;;;;;;37.50;19.80;;;;;;;0.23;86.48;99583.83;419851;1294;107548;-39
2022/12/01 19:20:38;;;;;;;25.30;15.00;;;;;;;0.19;86.36;99586.27;419816;1301;99226;-38
2022/12/01 19:30:46;;;;;;;27.90;15.30;;;;;;;0.22;86.45;99585.52;419856;1292;108477;-39
2022/12/01 19:40:54;;;;;;;37.00;20.70;;;;;;;0.21;86.45;99578.77;419957;1307;99513;-40
2022/12/01 19:51:01;;;;;;;43.60;22.00;;;;;;;0.13;86.59;99580.28;419824;1304;112009;-40
2022/12/01 20:01:10;;;;;;;33.30;18.30;;;;;;;0.05;86.33;99576.13;419764;1292;107999;-43
2022/12/01 20:11:18;;;;;;;31.10;15.80;;;;;;;0.08;86.23;99571.84;419808;1303;99355;-38
2022/12/01 20:21:27;;;;;;;40.90;21.00;;;;;;;0.16;86.56;99565.91;419770;1300;108836;-39
2022/12/01 20:31:35;;;;;;;44.00;24.00;;;;;;;0.12;86.53;99559.60;419822;1295;99224;-39
2022/12/01 20:41:44;;;;;;;32.30;17.90;;;;;;;0.05;86.49;99553.44;419880;1286;111615;-39
2022/12/01 20:51:51;;;;;;;40.80;17.10;;;;;;;0.09;86.39;99549.45;419908;1293;107117;-39
2022/12/01 21:01:58;;;;;;;47.50;21.10;;;;;;;0.07;86.55;99552.96;419755;1303;98895;-40
2022/12/01 21:22:37;;;;;;;24.00;13.90;;;;;;;-0.08;86.31;99553.88;419751;1303;109424;-40
2022/12/01 21:32:46;;;;;;;26.40;13.80;;;;;;;-0.08;86.32;99556.11;419631;1295;99227;-39
2022/12/01 21:42:53;;;;;;;35.90;17.10;;;;;;;-0.11;86.38;99563.02;419778;1301;111329;-38
2022/12/01 22:03:15;;;;;;;22.00;14.00;;;;;;;-0.18;86.09;99554.84;419706;1293;99345;-39
2022/12/01 22:13:26;;;;;;;31.70;16.30;;;;;;;-0.17;86.09;99554.36;419787;1302;107365;-39
2022/12/01 22:23:31;;;;;;;32.60;18.20;;;;;;;-0.27;86.02;99553.05;419832;1302;99262;-39
2022/12/01 22:33:39;;;;;;;22.10;13.50;;;;;;;-0.30;85.91;99551.38;419839;1301;110864;-40
2022/12/01 22:43:45;;;;;;;24.70;13.90;;;;;;;-0.26;85.95;99548.09;419727;1295;107153;-39
2022/12/01 22:53:53;;;;;;;60.00;23.40;;;;;;;-0.29;86.18;99538.64;419782;1295;99262;-39
2022/12/01 23:04:12;;;;;;;37.30;18.10;;;;;;;-0.34;86.06;99540.50;419791;1294;108554;-40
2022/12/01 23:14:22;;;;;;;55.90;23.40;;;;;;;-0.41;86.00;99530.75;419524;1302;346161;-40
2022/12/01 23:24:30;;;;;;;21.30;13.20;;;;;;;-0.42;85.95;99524.04;419792;1293;111198;-41
2022/12/01 23:34:40;;;;;;;16.00;10.50;;;;;;;-0.40;85.95;99524.92;419673;1292;108554;-40
2022/12/01 23:54:55;;;;;;;28.10;15.70;;;;;;;-0.54;85.87;99529.48;419846;1300;111275;-40
